createdAt,value
2022-07-29T00:00:47.874Z,21.30
2022-07-29T00:01:47.522Z,21.40
2022-07-29T00:02:47.396Z,21.46
2022-07-29T00:03:47.831Z,21.46
2022-07-29T00:04:47.271Z,21.33
2022-07-29T00:05:47.298Z,21.27
2022-07-29T00:06:47.258Z,21.30
2022-07-29T00:07:47.242Z,21.31
2022-07-29T00:08:47.267Z,21.12
2022-07-29T00:09:52.167Z,21.21
2022-07-29T00:10:48.245Z,21.18
2022-07-29T00:11:47.206Z,21.31
2022-07-29T00:12:47.203Z,21.31
2022-07-29T00:13:50.861Z,21.33
2022-07-29T00:14:48.253Z,21.24
2022-07-29T00:15:47.167Z,21.31
2022-07-29T00:16:47.238Z,21.31
2022-07-29T00:17:47.472Z,21.34
2022-07-29T00:18:47.169Z,21.30
2022-07-29T00:19:47.244Z,21.24
2022-07-29T00:20:47.099Z,21.19
2022-07-29T00:21:47.158Z,21.16
2022-07-29T00:22:47.077Z,21.13
2022-07-29T00:23:47.147Z,21.09
2022-07-29T00:24:47.212Z,21.09
2022-07-29T00:25:47.212Z,21.08
2022-07-29T00:26:47.028Z,21.13
2022-07-29T00:27:47.015Z,21.11
2022-07-29T00:28:47.119Z,21.11
2022-07-29T00:29:47.028Z,21.11
2022-07-29T00:30:47.014Z,21.11
2022-07-29T00:31:47.120Z,21.01
2022-07-29T00:32:47.016Z,20.94
2022-07-29T00:33:46.977Z,20.91
2022-07-29T00:34:47.064Z,20.83
2022-07-29T00:35:46.967Z,20.81
2022-07-29T00:36:46.990Z,20.82
2022-07-29T00:37:46.915Z,20.75
2022-07-29T00:38:46.897Z,20.68
2022-07-29T00:39:46.904Z,20.76
2022-07-29T00:40:46.908Z,20.72
2022-07-29T00:41:46.927Z,20.61
2022-07-29T00:42:46.894Z,20.68
2022-07-29T00:43:46.825Z,20.64
2022-07-29T00:44:47.844Z,20.72
2022-07-29T00:45:46.868Z,20.78
2022-07-29T00:46:47.061Z,20.81
2022-07-29T00:47:46.821Z,20.87
2022-07-29T00:48:46.879Z,20.90
2022-07-29T00:49:46.805Z,20.93
2022-07-29T00:50:46.799Z,20.88
2022-07-29T00:51:46.788Z,20.91
2022-07-29T00:52:46.878Z,21.00
2022-07-29T00:53:46.793Z,20.81
2022-07-29T00:54:47.726Z,20.78
2022-07-29T00:55:46.716Z,20.73
2022-07-29T00:56:46.800Z,20.64
2022-07-29T00:57:46.806Z,20.61
2022-07-29T00:58:46.849Z,20.57
2022-07-29T00:59:46.727Z,20.56
2022-07-29T01:00:46.691Z,20.56
2022-07-29T01:01:46.699Z,20.54
2022-07-29T01:02:46.712Z,20.71
2022-07-29T01:03:46.640Z,20.66
2022-07-29T01:04:46.749Z,20.56
2022-07-29T01:05:50.133Z,20.63
2022-07-29T01:06:46.632Z,20.57
2022-07-29T01:07:46.589Z,20.63
2022-07-29T01:08:46.597Z,20.60
2022-07-29T01:09:47.279Z,20.54
2022-07-29T01:10:47.542Z,20.60
2022-07-29T01:11:46.570Z,20.54
2022-07-29T01:12:46.568Z,20.53
2022-07-29T01:13:46.530Z,20.51
2022-07-29T01:14:46.561Z,20.58
2022-07-29T01:16:18.937Z,20.60
2022-07-29T01:17:18.861Z,20.60
2022-07-29T01:17:52.630Z,20.64
2022-07-29T01:18:47.426Z,20.60
2022-07-29T01:19:46.477Z,20.60
2022-07-29T01:20:46.466Z,20.69
2022-07-29T01:21:46.486Z,20.60
2022-07-29T01:22:46.409Z,20.76
2022-07-29T01:23:46.514Z,20.73
2022-07-29T01:24:46.414Z,20.73
2022-07-29T01:25:46.398Z,20.64
2022-07-29T01:26:46.355Z,20.61
2022-07-29T01:27:46.354Z,20.58
2022-07-29T01:28:46.362Z,20.54
2022-07-29T01:29:46.386Z,20.56
2022-07-29T01:30:46.341Z,20.53
2022-07-29T01:31:58.814Z,20.51
2022-07-29T01:32:47.309Z,20.48
2022-07-29T01:33:46.273Z,20.51
2022-07-29T01:34:46.367Z,20.41
2022-07-29T01:35:46.353Z,20.48
2022-07-29T01:36:46.297Z,20.40
2022-07-29T01:37:46.235Z,20.41
2022-07-29T01:38:46.357Z,20.53
2022-07-29T01:39:46.270Z,20.56
2022-07-29T01:40:46.379Z,20.61
2022-07-29T01:41:46.751Z,20.54
2022-07-29T01:42:46.231Z,20.57
2022-07-29T01:43:46.268Z,20.54
2022-07-29T01:44:46.197Z,20.57
2022-07-29T01:45:46.250Z,20.60
2022-07-29T01:46:46.278Z,20.61
2022-07-29T01:47:46.243Z,20.56
2022-07-29T01:48:46.220Z,20.64
2022-07-29T01:49:46.139Z,20.56
2022-07-29T01:50:46.144Z,20.51
2022-07-29T01:51:46.206Z,20.53
2022-07-29T01:52:46.061Z,20.48
2022-07-29T01:53:46.061Z,20.54
2022-07-29T01:54:46.639Z,20.40
2022-07-29T01:55:46.086Z,20.48
2022-07-29T01:56:46.095Z,20.40
2022-07-29T01:57:46.045Z,20.37
2022-07-29T01:58:46.034Z,20.34
2022-07-29T01:59:46.979Z,20.37
2022-07-29T02:00:45.978Z,20.35
2022-07-29T02:01:46.029Z,20.26
2022-07-29T02:02:45.927Z,20.20
2022-07-29T02:03:45.998Z,20.27
2022-07-29T02:04:45.980Z,20.23
2022-07-29T02:05:45.906Z,20.19
2022-07-29T02:06:45.946Z,20.22
2022-07-29T02:07:45.955Z,20.30
2022-07-29T02:08:45.886Z,20.30
2022-07-29T02:09:45.922Z,20.40
2022-07-29T02:10:45.862Z,20.26
2022-07-29T02:11:45.915Z,20.25
2022-07-29T02:12:50.885Z,20.30
2022-07-29T02:13:45.922Z,20.27
2022-07-29T02:14:45.935Z,20.25
2022-07-29T02:15:46.037Z,20.25
2022-07-29T02:16:45.799Z,20.26
2022-07-29T02:17:45.798Z,20.25
2022-07-29T02:18:45.855Z,20.25
2022-07-29T02:19:45.843Z,20.19
2022-07-29T02:20:45.813Z,20.16
2022-07-29T02:21:45.818Z,20.16
2022-07-29T02:22:46.028Z,20.16
2022-07-29T02:23:51.479Z,20.13
2022-07-29T02:24:46.827Z,20.05
2022-07-29T02:25:45.740Z,20.16
2022-07-29T02:26:45.727Z,20.10
2022-07-29T02:27:45.756Z,20.16
2022-07-29T02:28:45.714Z,20.19
2022-07-29T02:29:46.696Z,20.15
2022-07-29T02:30:45.813Z,20.10
2022-07-29T02:31:45.802Z,20.13
2022-07-29T02:32:47.085Z,20.12
2022-07-29T02:33:45.632Z,20.15
2022-07-29T02:34:45.652Z,20.10
2022-07-29T02:35:45.664Z,20.13
2022-07-29T02:36:45.648Z,20.15
2022-07-29T02:37:45.592Z,20.07
2022-07-29T02:38:45.622Z,20.08
2022-07-29T02:39:46.585Z,20.05
2022-07-29T02:40:45.549Z,20.00
2022-07-29T02:41:45.519Z,19.97
2022-07-29T02:42:45.649Z,19.87
2022-07-29T02:43:45.621Z,19.87
2022-07-29T02:44:45.549Z,19.86
2022-07-29T02:45:45.522Z,19.83
2022-07-29T02:46:45.497Z,19.87
2022-07-29T02:47:45.579Z,19.80
2022-07-29T02:48:45.533Z,19.82
2022-07-29T02:49:45.436Z,19.79
2022-07-29T02:50:46.537Z,19.82
2022-07-29T02:51:45.441Z,19.78
2022-07-29T02:52:45.384Z,19.72
2022-07-29T02:53:45.530Z,19.75
2022-07-29T02:54:46.413Z,19.65
2022-07-29T02:55:45.372Z,19.72
2022-07-29T02:56:45.353Z,19.72
2022-07-29T02:57:54.358Z,19.75
2022-07-29T02:58:46.422Z,19.76
2022-07-29T02:59:45.361Z,19.75
2022-07-29T03:00:45.342Z,19.71
2022-07-29T03:01:45.442Z,19.76
2022-07-29T03:02:45.365Z,19.72
2022-07-29T03:03:45.294Z,19.78
2022-07-29T03:04:45.371Z,19.85
2022-07-29T03:05:45.329Z,19.79
2022-07-29T03:06:45.250Z,19.68
2022-07-29T03:07:45.305Z,19.71
2022-07-29T03:08:45.302Z,19.72
2022-07-29T03:09:45.314Z,19.64
2022-07-29T03:10:45.266Z,19.79
2022-07-29T03:11:49.452Z,19.65
2022-07-29T03:12:45.234Z,19.61
2022-07-29T03:13:45.221Z,19.53
2022-07-29T03:14:45.297Z,19.57
2022-07-29T03:15:45.248Z,19.46
2022-07-29T03:16:45.283Z,19.42
2022-07-29T03:17:45.156Z,19.49
2022-07-29T03:18:45.125Z,19.45
2022-07-29T03:19:45.162Z,19.47
2022-07-29T03:20:45.137Z,19.46
2022-07-29T03:21:45.093Z,19.43
2022-07-29T03:22:45.821Z,19.46
2022-07-29T03:23:45.129Z,19.53
2022-07-29T03:24:45.159Z,19.57
2022-07-29T03:25:45.098Z,19.60
2022-07-29T03:26:45.086Z,19.55
2022-07-29T03:27:45.043Z,19.52
2022-07-29T03:28:45.053Z,19.57
2022-07-29T03:29:49.960Z,19.50
2022-07-29T03:30:47.527Z,19.65
2022-07-29T03:31:45.018Z,19.62
2022-07-29T03:32:44.999Z,19.58
2022-07-29T03:33:45.061Z,19.60
2022-07-29T03:34:44.999Z,19.61
2022-07-29T03:35:44.970Z,19.70
2022-07-29T03:36:44.977Z,19.64
2022-07-29T03:37:44.973Z,19.78
2022-07-29T03:38:44.966Z,19.72
2022-07-29T03:39:45.390Z,19.72
2022-07-29T03:40:45.351Z,19.72
2022-07-29T03:41:44.895Z,19.75
2022-07-29T03:42:44.911Z,19.72
2022-07-29T03:43:49.333Z,19.72
2022-07-29T03:44:44.923Z,19.70
2022-07-29T03:45:44.867Z,19.71
2022-07-29T03:46:44.982Z,19.68
2022-07-29T03:47:50.847Z,19.79
2022-07-29T03:48:46.433Z,19.78
2022-07-29T03:49:45.325Z,19.86
2022-07-29T03:50:44.856Z,19.78
2022-07-29T03:51:44.814Z,19.76
2022-07-29T03:52:45.345Z,19.86
2022-07-29T03:53:44.791Z,19.87
2022-07-29T03:54:44.795Z,19.85
2022-07-29T03:55:44.779Z,19.85
2022-07-29T03:56:44.779Z,19.82
2022-07-29T03:57:44.747Z,19.72
2022-07-29T03:58:44.779Z,19.87
2022-07-29T03:59:44.764Z,19.85
2022-07-29T04:00:44.704Z,19.89
2022-07-29T04:01:44.752Z,19.80
2022-07-29T04:02:44.691Z,19.95
2022-07-29T04:03:45.164Z,19.95
2022-07-29T04:04:45.234Z,20.01
2022-07-29T04:05:44.892Z,19.97
2022-07-29T04:06:44.639Z,20.00
2022-07-29T04:07:44.626Z,19.82
2022-07-29T04:08:44.615Z,19.97
2022-07-29T04:09:44.661Z,20.00
2022-07-29T04:10:44.592Z,19.85
2022-07-29T04:12:02.171Z,19.86
2022-07-29T04:12:45.597Z,19.86
2022-07-29T04:13:44.580Z,19.79
2022-07-29T04:14:44.573Z,19.86
2022-07-29T04:15:44.861Z,19.87
2022-07-29T04:16:44.901Z,19.98
2022-07-29T04:17:44.522Z,19.94
2022-07-29T04:18:44.536Z,19.89
2022-07-29T04:19:44.553Z,19.86
2022-07-29T04:20:44.560Z,19.95
2022-07-29T04:21:44.490Z,19.80
2022-07-29T04:22:45.056Z,19.85
2022-07-29T04:23:47.556Z,19.80
2022-07-29T04:24:45.475Z,19.87
2022-07-29T04:25:45.496Z,19.80
2022-07-29T04:26:44.437Z,19.86
2022-07-29T04:27:44.517Z,19.83
2022-07-29T04:28:44.445Z,19.78
2022-07-29T04:29:56.515Z,19.85
2022-07-29T04:30:45.488Z,19.70
2022-07-29T04:31:44.417Z,19.72
2022-07-29T04:32:44.765Z,19.79
2022-07-29T04:33:44.693Z,19.85
2022-07-29T04:34:44.394Z,19.83
2022-07-29T04:35:50.200Z,19.78
2022-07-29T04:36:45.297Z,19.71
2022-07-29T04:37:44.372Z,19.72
2022-07-29T04:38:44.758Z,19.83
2022-07-29T04:39:44.293Z,19.85
2022-07-29T04:40:44.294Z,19.83
2022-07-29T04:41:44.840Z,19.87
2022-07-29T04:42:46.903Z,19.87
2022-07-29T04:43:44.244Z,19.85
2022-07-29T04:44:44.253Z,19.86
2022-07-29T04:45:44.257Z,19.89
2022-07-29T04:46:44.293Z,19.78
2022-07-29T04:47:44.267Z,19.78
2022-07-29T04:48:45.254Z,19.78
2022-07-29T04:49:44.305Z,19.72
2022-07-29T04:50:44.161Z,19.70
2022-07-29T04:51:44.245Z,19.71
2022-07-29T04:52:44.162Z,19.70
2022-07-29T04:53:44.183Z,19.76
2022-07-29T04:54:44.131Z,19.76
2022-07-29T04:55:44.215Z,19.85
2022-07-29T04:56:44.132Z,19.76
2022-07-29T04:57:44.152Z,19.76
2022-07-29T04:58:44.104Z,19.75
2022-07-29T04:59:44.101Z,19.82
2022-07-29T05:00:44.108Z,19.71
2022-07-29T05:01:44.244Z,19.75
2022-07-29T05:02:44.105Z,19.79
2022-07-29T05:03:44.105Z,19.76
2022-07-29T05:04:44.065Z,19.71
2022-07-29T05:05:44.032Z,19.71
2022-07-29T05:06:44.033Z,19.64
2022-07-29T05:07:44.048Z,19.67
2022-07-29T05:08:44.058Z,19.67
2022-07-29T05:09:44.360Z,19.78
2022-07-29T05:10:43.982Z,19.68
2022-07-29T05:11:43.985Z,19.60
2022-07-29T05:12:44.740Z,19.64
2022-07-29T05:13:45.809Z,19.62
2022-07-29T05:14:43.927Z,19.61
2022-07-29T05:15:43.985Z,19.64
2022-07-29T05:16:43.908Z,19.68
2022-07-29T05:17:44.014Z,19.67
2022-07-29T05:18:43.944Z,19.68
2022-07-29T05:19:43.859Z,19.58
2022-07-29T05:20:44.008Z,19.62
2022-07-29T05:21:43.907Z,19.58
2022-07-29T05:22:43.848Z,19.58
2022-07-29T05:23:43.907Z,19.72
2022-07-29T05:24:43.839Z,19.70
2022-07-29T05:25:44.941Z,19.72
2022-07-29T05:26:43.813Z,19.71
2022-07-29T05:27:43.775Z,19.68
2022-07-29T05:28:43.765Z,19.61
2022-07-29T05:29:45.761Z,19.62
2022-07-29T05:30:44.828Z,19.65
2022-07-29T05:31:43.743Z,19.62
2022-07-29T05:32:43.761Z,19.67
2022-07-29T05:33:43.740Z,19.64
2022-07-29T05:34:50.854Z,19.57
2022-07-29T05:35:44.999Z,19.58
2022-07-29T05:36:43.726Z,19.55
2022-07-29T05:37:43.720Z,19.58
2022-07-29T05:38:43.901Z,19.47
2022-07-29T05:39:48.871Z,19.43
2022-07-29T05:40:44.680Z,19.53
2022-07-29T05:41:45.689Z,19.50
2022-07-29T05:42:43.654Z,19.50
2022-07-29T05:43:43.642Z,19.52
2022-07-29T05:44:43.653Z,19.53
2022-07-29T05:45:49.797Z,19.53
2022-07-29T05:46:43.692Z,19.58
2022-07-29T05:47:43.577Z,19.53
2022-07-29T05:48:43.607Z,19.52
2022-07-29T05:49:43.639Z,19.47
2022-07-29T05:50:44.235Z,19.52
2022-07-29T05:51:43.551Z,19.57
2022-07-29T05:52:43.556Z,19.49
2022-07-29T05:53:43.540Z,19.58
2022-07-29T05:54:43.563Z,19.50
2022-07-29T05:55:43.541Z,19.47
2022-07-29T05:56:43.483Z,19.50
2022-07-29T05:57:43.486Z,19.50
2022-07-29T05:58:43.506Z,19.68
2022-07-29T05:59:43.446Z,19.64
2022-07-29T06:00:43.460Z,19.64
2022-07-29T06:01:43.519Z,19.68
2022-07-29T06:02:43.445Z,19.70
2022-07-29T06:03:43.443Z,19.62
2022-07-29T06:04:43.440Z,19.61
2022-07-29T06:05:43.453Z,19.61
2022-07-29T06:06:43.414Z,19.70
2022-07-29T06:07:51.551Z,19.67
2022-07-29T06:08:44.377Z,19.72
2022-07-29T06:09:43.345Z,19.62
2022-07-29T06:10:43.325Z,19.62
2022-07-29T06:11:44.361Z,19.67
2022-07-29T06:12:43.350Z,19.67
2022-07-29T06:13:43.301Z,19.71
2022-07-29T06:14:43.332Z,19.70
2022-07-29T06:15:43.334Z,19.65
2022-07-29T06:16:43.362Z,19.64
2022-07-29T06:18:00.565Z,19.62
2022-07-29T06:18:44.274Z,19.58
2022-07-29T06:19:43.337Z,19.61
2022-07-29T06:20:43.233Z,19.65
2022-07-29T06:21:43.193Z,19.76
2022-07-29T06:22:43.240Z,19.83
2022-07-29T06:23:43.233Z,19.70
2022-07-29T06:24:43.246Z,19.76
2022-07-29T06:25:43.166Z,19.80
2022-07-29T06:26:43.187Z,19.72
2022-07-29T06:27:43.185Z,19.71
2022-07-29T06:28:43.161Z,19.72
2022-07-29T06:29:43.933Z,19.85
2022-07-29T06:30:43.818Z,19.78
2022-07-29T06:31:43.194Z,19.80
2022-07-29T06:32:43.547Z,19.87
2022-07-29T06:33:44.166Z,19.86
2022-07-29T06:34:43.098Z,19.86
2022-07-29T06:35:43.056Z,19.87
2022-07-29T06:36:44.060Z,19.87
2022-07-29T06:37:43.275Z,19.98
2022-07-29T06:38:49.459Z,20.04
2022-07-29T06:39:44.045Z,20.04
2022-07-29T06:40:43.049Z,20.13
2022-07-29T06:41:43.000Z,20.12
2022-07-29T06:42:42.995Z,20.13
2022-07-29T06:43:52.091Z,20.10
2022-07-29T06:44:43.972Z,20.12
2022-07-29T06:45:43.009Z,20.07
2022-07-29T06:46:43.081Z,20.01
2022-07-29T06:47:42.927Z,20.10
2022-07-29T06:48:42.983Z,20.10
2022-07-29T06:49:42.939Z,20.13
2022-07-29T06:50:42.900Z,20.15
2022-07-29T06:51:42.937Z,20.05
2022-07-29T06:52:42.888Z,20.12
2022-07-29T06:54:00.141Z,20.15
2022-07-29T06:54:43.874Z,20.08
2022-07-29T06:55:42.876Z,19.95
2022-07-29T06:56:42.868Z,20.05
2022-07-29T06:57:42.855Z,20.04
2022-07-29T06:58:42.841Z,20.02
2022-07-29T06:59:42.850Z,20.07
2022-07-29T07:00:42.804Z,19.94
2022-07-29T07:01:42.934Z,20.00
2022-07-29T07:02:42.866Z,20.00
2022-07-29T07:03:42.787Z,20.07
2022-07-29T07:04:42.771Z,20.05
2022-07-29T07:05:42.870Z,20.10
2022-07-29T07:06:42.752Z,20.17
2022-07-29T07:07:42.750Z,20.13
2022-07-29T07:08:42.724Z,20.07
2022-07-29T07:09:42.750Z,20.12
2022-07-29T07:10:42.804Z,20.10
2022-07-29T07:11:42.753Z,20.12
2022-07-29T07:12:42.742Z,20.10
2022-07-29T07:13:42.643Z,20.05
2022-07-29T07:14:42.646Z,20.12
2022-07-29T07:15:42.840Z,20.08
2022-07-29T07:16:43.226Z,20.04
2022-07-29T07:17:42.723Z,19.98
2022-07-29T07:18:42.604Z,19.94
2022-07-29T07:19:42.617Z,19.89
2022-07-29T07:20:42.743Z,19.83
2022-07-29T07:21:42.730Z,19.80
2022-07-29T07:22:42.542Z,19.67
2022-07-29T07:23:42.604Z,19.64
2022-07-29T07:24:42.590Z,19.62
2022-07-29T07:25:42.637Z,19.62
2022-07-29T07:26:43.246Z,19.71
2022-07-29T07:27:42.490Z,19.68
2022-07-29T07:28:42.500Z,19.72
2022-07-29T07:29:44.169Z,19.80
2022-07-29T07:30:42.599Z,19.79
2022-07-29T07:31:42.607Z,19.83
2022-07-29T07:32:42.438Z,19.75
2022-07-29T07:33:42.565Z,19.78
2022-07-29T07:34:42.668Z,19.82
2022-07-29T07:35:42.490Z,19.86
2022-07-29T07:36:42.506Z,19.89
2022-07-29T07:37:42.511Z,19.87
2022-07-29T07:38:42.773Z,19.83
2022-07-29T07:39:42.716Z,19.92
2022-07-29T07:40:42.539Z,19.72
2022-07-29T07:41:42.459Z,19.64
2022-07-29T07:42:42.523Z,19.35
2022-07-29T07:43:42.336Z,19.38
2022-07-29T07:45:03.883Z,19.32
2022-07-29T07:45:44.419Z,19.34
2022-07-29T07:46:42.299Z,19.40
2022-07-29T07:47:42.283Z,19.52
2022-07-29T07:48:42.318Z,19.49
2022-07-29T07:49:42.303Z,19.52
2022-07-29T07:50:42.417Z,19.52
2022-07-29T07:51:42.396Z,19.42
2022-07-29T07:52:43.596Z,19.28
2022-07-29T07:53:42.592Z,19.16
2022-07-29T07:54:43.025Z,19.09
2022-07-29T07:56:08.122Z,19.09
2022-07-29T07:56:44.666Z,19.02
2022-07-29T07:57:42.431Z,18.93
2022-07-29T07:58:42.373Z,18.93
2022-07-29T07:59:42.409Z,18.93
2022-07-29T08:00:42.284Z,18.76
2022-07-29T08:01:48.073Z,18.76
2022-07-29T08:02:43.484Z,18.68
2022-07-29T08:03:42.689Z,18.53
2022-07-29T08:04:42.448Z,18.34
2022-07-29T08:05:42.206Z,18.34
2022-07-29T08:06:42.069Z,18.31
2022-07-29T08:07:42.211Z,18.26
2022-07-29T08:08:42.864Z,18.32
2022-07-29T08:09:42.252Z,18.38
2022-07-29T08:10:43.149Z,18.23
2022-07-29T08:11:48.233Z,18.29
2022-07-29T08:12:43.088Z,18.19
2022-07-29T08:13:42.033Z,18.11
2022-07-29T08:14:42.045Z,18.17
2022-07-29T08:15:41.998Z,18.16
2022-07-29T08:16:42.198Z,18.11
2022-07-29T08:17:42.036Z,18.20
2022-07-29T08:18:42.035Z,18.17
2022-07-29T08:19:42.438Z,18.16
2022-07-29T08:20:42.021Z,18.11
2022-07-29T08:21:41.999Z,18.01
2022-07-29T08:22:44.028Z,18.01
2022-07-29T08:23:47.063Z,18.02
2022-07-29T08:24:43.895Z,18.04
2022-07-29T08:25:42.678Z,18.10
2022-07-29T08:26:42.519Z,18.05
2022-07-29T08:27:43.731Z,18.04
2022-07-29T08:28:42.874Z,18.11
2022-07-29T08:29:41.832Z,18.19
2022-07-29T08:30:42.051Z,18.17
2022-07-29T08:31:41.913Z,18.14
2022-07-29T08:32:53.791Z,18.21
2022-07-29T08:33:44.318Z,18.31
2022-07-29T08:34:41.808Z,18.26
2022-07-29T08:35:42.305Z,18.35
2022-07-29T08:36:41.924Z,18.41
2022-07-29T08:37:42.127Z,18.49
2022-07-29T08:38:42.027Z,18.46
2022-07-29T08:39:43.124Z,18.54
2022-07-29T08:40:42.184Z,18.51
2022-07-29T08:41:56.807Z,18.50
2022-07-29T08:42:42.891Z,18.59
2022-07-29T08:43:42.041Z,18.68
2022-07-29T08:44:41.699Z,18.78
2022-07-29T08:45:42.301Z,18.83
2022-07-29T08:46:42.093Z,18.94
2022-07-29T08:47:41.864Z,19.07
2022-07-29T08:48:41.836Z,18.99
2022-07-29T08:49:41.762Z,19.15
2022-07-29T08:50:42.525Z,19.15
2022-07-29T08:51:49.430Z,19.24
2022-07-29T08:52:43.074Z,19.35
2022-07-29T08:53:42.220Z,19.43
2022-07-29T08:54:42.149Z,19.52
2022-07-29T08:55:42.254Z,19.67
2022-07-29T08:56:41.796Z,19.71
2022-07-29T08:57:50.800Z,19.83
2022-07-29T08:58:41.595Z,19.89
2022-07-29T08:59:41.724Z,20.05
2022-07-29T09:00:41.660Z,20.19
2022-07-29T09:01:42.739Z,20.22
2022-07-29T09:02:41.800Z,20.34
2022-07-29T09:03:42.025Z,20.46
2022-07-29T09:04:41.664Z,20.44
2022-07-29T09:05:44.933Z,20.50
2022-07-29T09:06:42.687Z,20.53
2022-07-29T09:07:41.908Z,20.51
2022-07-29T09:08:42.005Z,20.53
2022-07-29T09:09:41.705Z,20.51
2022-07-29T09:10:41.535Z,20.53
2022-07-29T09:11:41.392Z,20.60
2022-07-29T09:12:41.424Z,20.58
2022-07-29T09:13:41.511Z,20.51
2022-07-29T09:14:41.373Z,20.44
2022-07-29T09:15:41.357Z,20.54
2022-07-29T09:17:00.885Z,20.51
2022-07-29T09:17:43.359Z,20.53
2022-07-29T09:18:41.320Z,20.48
2022-07-29T09:19:45.533Z,20.42
2022-07-29T09:20:41.314Z,20.42
2022-07-29T09:21:41.322Z,20.56
2022-07-29T09:22:42.220Z,20.68
2022-07-29T09:23:41.346Z,20.61
2022-07-29T09:24:41.549Z,20.73
2022-07-29T09:25:42.311Z,20.78
2022-07-29T09:26:41.819Z,20.93
2022-07-29T09:27:41.498Z,21.00
2022-07-29T09:28:41.584Z,20.94
2022-07-29T09:29:42.187Z,20.98
2022-07-29T09:30:41.355Z,20.90
2022-07-29T09:31:42.240Z,21.03
2022-07-29T09:32:41.507Z,21.08
2022-07-29T09:33:41.483Z,21.01
2022-07-29T09:34:41.171Z,21.11
2022-07-29T09:35:41.155Z,21.27
2022-07-29T09:36:42.471Z,21.33
2022-07-29T09:37:41.199Z,21.36
2022-07-29T09:38:41.102Z,21.45
2022-07-29T09:39:41.122Z,21.58
2022-07-29T09:40:41.099Z,21.61
2022-07-29T09:41:41.056Z,21.64
2022-07-29T09:42:41.143Z,21.64
2022-07-29T09:43:41.883Z,21.67
2022-07-29T09:44:41.035Z,21.73
2022-07-29T09:45:41.043Z,21.77
2022-07-29T09:46:41.112Z,21.77
2022-07-29T09:47:41.101Z,21.64
2022-07-29T09:48:41.112Z,21.61
2022-07-29T09:49:41.035Z,21.83
2022-07-29T09:50:41.451Z,22.05
2022-07-29T09:51:41.695Z,22.42
2022-07-29T09:52:41.188Z,22.64
2022-07-29T09:53:42.443Z,22.79
2022-07-29T09:54:40.920Z,22.84
2022-07-29T09:55:42.588Z,22.69
2022-07-29T09:56:43.025Z,22.64
2022-07-29T09:57:42.084Z,22.64
2022-07-29T09:58:42.978Z,22.76
2022-07-29T09:59:50.246Z,22.75
2022-07-29T10:00:41.888Z,22.69
2022-07-29T10:01:41.689Z,22.75
2022-07-29T10:02:42.744Z,22.76
2022-07-29T10:03:42.932Z,22.72
2022-07-29T10:04:41.200Z,22.74
2022-07-29T10:05:42.842Z,22.78
2022-07-29T10:06:42.578Z,22.86
2022-07-29T10:07:43.850Z,22.88
2022-07-29T10:08:42.910Z,22.75
2022-07-29T10:09:42.062Z,22.72
2022-07-29T10:10:43.309Z,22.69
2022-07-29T10:11:48.988Z,22.66
2022-07-29T10:12:41.852Z,22.78
2022-07-29T10:13:44.740Z,22.78
2022-07-29T10:14:43.370Z,22.85
2022-07-29T10:15:41.936Z,22.91
2022-07-29T10:16:40.931Z,22.86
2022-07-29T10:17:41.877Z,22.93
2022-07-29T10:18:41.914Z,22.97
2022-07-29T10:19:41.761Z,23.01
2022-07-29T10:20:44.886Z,23.09
2022-07-29T10:21:41.918Z,23.15
2022-07-29T10:22:53.089Z,23.15
2022-07-29T10:23:46.105Z,23.21
2022-07-29T10:24:40.736Z,23.29
2022-07-29T10:25:45.688Z,23.41
2022-07-29T10:26:41.656Z,23.59
2022-07-29T10:27:40.630Z,23.81
2022-07-29T10:28:40.597Z,24.05
2022-07-29T10:29:40.566Z,24.15
2022-07-29T10:30:40.559Z,24.24
2022-07-29T10:31:40.651Z,24.51
2022-07-29T10:32:41.378Z,24.67
2022-07-29T10:33:40.558Z,24.84
2022-07-29T10:34:40.527Z,24.89
2022-07-29T10:35:40.543Z,25.11
2022-07-29T10:36:40.550Z,25.22
2022-07-29T10:37:45.849Z,25.16
2022-07-29T10:38:45.666Z,25.29
2022-07-29T10:39:44.624Z,25.22
2022-07-29T10:40:41.574Z,25.14
2022-07-29T10:41:43.794Z,25.12
2022-07-29T10:42:40.448Z,25.02
2022-07-29T10:43:42.381Z,24.89
2022-07-29T10:44:42.872Z,24.93
2022-07-29T10:45:40.423Z,24.77
2022-07-29T10:46:41.305Z,24.75
2022-07-29T10:47:40.435Z,24.68
2022-07-29T10:48:40.452Z,24.48
2022-07-29T10:49:41.172Z,24.61
2022-07-29T10:50:41.480Z,24.63
2022-07-29T10:51:40.480Z,24.64
2022-07-29T10:52:40.377Z,24.59
2022-07-29T10:53:40.304Z,24.59
2022-07-29T10:54:43.627Z,24.66
2022-07-29T10:55:43.403Z,24.97
2022-07-29T10:56:40.959Z,25.17
2022-07-29T10:57:54.054Z,25.34
2022-07-29T10:58:41.292Z,25.30
2022-07-29T10:59:44.599Z,25.19
2022-07-29T11:00:40.323Z,25.09
2022-07-29T11:01:40.304Z,25.27
2022-07-29T11:02:43.779Z,25.49
2022-07-29T11:03:40.244Z,25.67
2022-07-29T11:04:41.202Z,25.81
2022-07-29T11:05:40.979Z,26.09
2022-07-29T11:06:40.248Z,26.08
2022-07-29T11:07:45.959Z,26.13
2022-07-29T11:08:41.184Z,26.19
2022-07-29T11:09:40.157Z,26.24
2022-07-29T11:10:40.206Z,26.38
2022-07-29T11:11:40.196Z,26.31
2022-07-29T11:12:40.173Z,26.00
2022-07-29T11:13:41.429Z,26.00
2022-07-29T11:14:41.141Z,25.96
2022-07-29T11:15:40.076Z,26.09
2022-07-29T11:16:40.120Z,25.89
2022-07-29T11:17:52.136Z,25.82
2022-07-29T11:18:42.064Z,25.79
2022-07-29T11:19:42.388Z,25.89
2022-07-29T11:20:40.030Z,26.08
2022-07-29T11:22:05.152Z,26.13
2022-07-29T11:22:42.961Z,26.12
2022-07-29T11:23:42.868Z,26.06
2022-07-29T11:25:42.990Z,25.98
2022-07-29T11:26:39.995Z,25.93
2022-07-29T11:27:39.982Z,25.93
2022-07-29T11:28:39.917Z,25.83
2022-07-29T11:29:40.263Z,25.89
2022-07-29T11:30:39.934Z,26.11
2022-07-29T11:31:39.993Z,26.13
2022-07-29T11:32:39.915Z,26.27
2022-07-29T11:33:55.813Z,26.24
2022-07-29T11:34:40.854Z,26.03
2022-07-29T11:35:40.026Z,25.97
2022-07-29T11:36:39.869Z,26.06
2022-07-29T11:37:42.391Z,26.11
2022-07-29T11:38:41.602Z,26.23
2022-07-29T11:39:39.833Z,26.19
2022-07-29T11:40:39.891Z,26.24
2022-07-29T11:41:39.810Z,26.17
2022-07-29T11:42:41.763Z,25.96
2022-07-29T11:43:39.786Z,25.89
2022-07-29T11:44:39.750Z,25.82
2022-07-29T11:45:41.293Z,25.90
2022-07-29T11:46:39.798Z,25.82
2022-07-29T11:47:39.926Z,25.91
2022-07-29T11:48:40.787Z,26.01
2022-07-29T11:49:39.746Z,26.13
2022-07-29T11:50:44.354Z,26.41
2022-07-29T11:52:49.447Z,26.83
2022-07-29T11:53:40.718Z,27.02
2022-07-29T11:54:58.136Z,27.15
2022-07-29T11:55:50.841Z,27.09
2022-07-29T11:56:40.676Z,26.93
2022-07-29T11:57:39.689Z,27.09
2022-07-29T11:58:39.706Z,27.24
2022-07-29T11:59:39.641Z,27.33
2022-07-29T12:00:39.645Z,27.39
2022-07-29T12:01:39.642Z,27.65
2022-07-29T12:02:40.727Z,27.71
2022-07-29T12:03:39.791Z,27.59
2022-07-29T12:04:39.598Z,27.42
2022-07-29T12:05:39.591Z,27.15
2022-07-29T12:06:39.552Z,26.88
2022-07-29T12:07:41.155Z,26.64
2022-07-29T12:08:40.557Z,26.64
2022-07-29T12:09:40.429Z,26.49
2022-07-29T12:10:39.573Z,26.60
2022-07-29T12:11:39.605Z,26.68
2022-07-29T12:12:39.471Z,26.94
2022-07-29T12:13:39.505Z,27.09
2022-07-29T12:14:39.545Z,27.30
2022-07-29T12:15:47.056Z,27.40
2022-07-29T12:16:41.314Z,27.52
2022-07-29T12:17:39.461Z,27.59
2022-07-29T12:18:40.414Z,27.65
2022-07-29T12:19:39.450Z,27.80
2022-07-29T12:20:39.518Z,28.01
2022-07-29T12:21:39.442Z,28.03
2022-07-29T12:22:40.354Z,28.13
2022-07-29T12:23:39.478Z,28.36
2022-07-29T12:24:39.426Z,28.55
2022-07-29T12:25:39.491Z,28.50
2022-07-29T12:26:40.423Z,28.50
2022-07-29T12:27:40.551Z,28.38
2022-07-29T12:28:39.297Z,28.35
2022-07-29T12:29:39.363Z,28.25
2022-07-29T12:30:40.294Z,28.32
2022-07-29T12:31:43.303Z,28.50
2022-07-29T12:32:40.314Z,28.39
2022-07-29T12:33:39.236Z,28.46
2022-07-29T12:34:40.187Z,28.42
2022-07-29T12:35:39.276Z,28.60
2022-07-29T12:36:39.279Z,28.54
2022-07-29T12:37:41.326Z,28.79
2022-07-29T12:38:39.178Z,28.82
2022-07-29T12:39:39.187Z,28.82
2022-07-29T12:40:39.183Z,28.38
2022-07-29T12:41:39.279Z,28.15
2022-07-29T12:42:39.244Z,28.33
2022-07-29T12:43:39.164Z,28.45
2022-07-29T12:44:39.184Z,28.69
2022-07-29T12:45:39.132Z,28.65
2022-07-29T12:46:39.593Z,28.76
2022-07-29T12:47:39.176Z,28.92
2022-07-29T12:48:39.192Z,28.97
2022-07-29T12:49:39.164Z,29.12
2022-07-29T12:50:39.113Z,29.11
2022-07-29T12:51:39.081Z,29.03
2022-07-29T12:52:39.128Z,29.03
2022-07-29T12:53:39.068Z,28.82
2022-07-29T12:54:39.041Z,28.60